Time;durP1;ratioP1;P1;durP2;ratioP2;P2;SDS_P1;SDS_P2;PMS_P1;PMS_P2;Temp;Humidity;BMP_temperature;BMP_pressure;BME280_temperature;BME280_humidity;BME280_pressure;Samples;Min_cycle;Max_cycle;Signal;HPM_P1;HPM_P2
2021/11/02 00:00:11;;;;;;;9.73;1.92;;;8.40;99.90;;;;;;5063319;28;20032;-56
2021/11/02 00:02:36;;;;;;;5.15;1.60;;;8.40;99.90;;;;;;5065306;28;20059;-56
2021/11/02 00:05:02;;;;;;;9.63;1.75;;;8.40;99.90;;;;;;5063155;28;20025;-60
2021/11/02 00:07:28;;;;;;;10.73;2.05;;;8.40;99.90;;;;;;5065853;28;20520;-57
2021/11/02 00:09:57;;;;;;;8.55;1.85;;;8.40;99.90;;;;;;5067342;28;20044;-56
2021/11/02 00:12:23;;;;;;;7.47;1.40;;;8.30;99.90;;;;;;5043574;28;20111;-56
2021/11/02 00:14:49;;;;;;;13.70;2.08;;;8.30;99.90;;;;;;5064299;28;20451;-57
2021/11/02 00:17:23;;;;;;;8.30;1.80;;;8.20;99.90;;;;;;5064607;28;20032;-58
2021/11/02 00:19:51;;;;;;;8.82;1.95;;;8.20;99.90;;;;;;5066121;28;20025;-56
2021/11/02 00:22:18;;;;;;;11.55;1.90;;;8.20;99.90;;;;;;5060901;28;20036;-54
2021/11/02 00:27:25;;;;;;;3.40;1.60;;;8.20;99.90;;;;;;5067039;28;20574;-52
2021/11/02 00:29:52;;;;;;;12.98;2.00;;;8.20;99.90;;;;;;5067500;28;20108;-56
2021/11/02 00:32:17;;;;;;;6.05;1.70;;;8.30;99.90;;;;;;5060828;28;20089;-53
2021/11/02 00:34:43;;;;;;;8.50;1.45;;;8.20;99.90;;;;;;5062144;28;20528;-57
2021/11/02 00:37:09;;;;;;;6.97;1.35;;;8.20;99.90;;;;;;5063907;28;20418;-56
2021/11/02 00:39:34;;;;;;;10.18;1.40;;;8.20;99.90;;;;;;5047954;28;20080;-52
2021/11/02 00:42:00;;;;;;;8.45;2.58;;;8.10;99.90;;;;;;5062705;28;20061;-52
2021/11/02 00:44:26;;;;;;;10.57;1.35;;;8.10;99.90;;;;;;5063536;28;20036;-58
2021/11/02 00:46:52;;;;;;;7.32;1.70;;;8.10;99.90;;;;;;5061020;28;20449;-56
2021/11/02 00:49:20;;;;;;;6.63;1.52;;;8.10;99.90;;;;;;5063459;28;20047;-58
2021/11/02 00:51:47;;;;;;;4.85;1.60;;;8.10;99.90;;;;;;5067010;28;20032;-59
2021/11/02 00:54:13;;;;;;;12.15;2.33;;;8.00;99.90;;;;;;5061515;28;20039;-56
2021/11/02 00:56:40;;;;;;;17.30;2.17;;;8.10;99.90;;;;;;5063963;28;20040;-56
2021/11/02 00:59:06;;;;;;;9.32;1.80;;;8.20;99.90;;;;;;5064435;28;20516;-56
2021/11/02 01:01:32;;;;;;;5.30;1.48;;;8.20;99.90;;;;;;5065226;28;20060;-55
2021/11/02 01:03:58;;;;;;;5.63;1.20;;;8.20;99.90;;;;;;5065917;28;20106;-54
2021/11/02 01:06:24;;;;;;;17.65;2.10;;;8.30;99.90;;;;;;5065303;28;20020;-52
2021/11/02 01:08:50;;;;;;;4.03;1.02;;;8.30;99.90;;;;;;5058290;28;20110;-55
2021/11/02 01:11:17;;;;;;;13.88;1.92;;;8.40;99.90;;;;;;5061343;28;20094;-55
2021/11/02 01:13:42;;;;;;;8.48;2.08;;;8.40;99.90;;;;;;5064531;28;20052;-59
2021/11/02 01:16:08;;;;;;;3.83;1.42;;;8.50;99.90;;;;;;5065192;28;20129;-54
2021/11/02 01:18:33;;;;;;;18.30;1.77;;;8.50;99.90;;;;;;5064747;28;20030;-56
2021/11/02 01:20:59;;;;;;;7.97;1.35;;;8.50;99.90;;;;;;5065428;28;20525;-58
2021/11/02 01:23:25;;;;;;;7.07;1.90;;;8.60;99.90;;;;;;5062963;28;20043;-55
2021/11/02 01:25:50;;;;;;;4.68;1.30;;;8.60;99.90;;;;;;5061030;28;20360;-51
2021/11/02 01:28:16;;;;;;;7.38;1.00;;;8.60;99.90;;;;;;5063209;28;20029;-57
2021/11/02 01:30:42;;;;;;;2.75;1.30;;;8.60;99.90;;;;;;5063547;28;20025;-55
2021/11/02 01:33:07;;;;;;;3.45;0.90;;;8.60;99.90;;;;;;5065379;28;20111;-56
2021/11/02 01:35:33;;;;;;;5.47;1.20;;;8.60;99.90;;;;;;5063319;28;20036;-56
2021/11/02 01:38:00;;;;;;;3.67;1.00;;;8.60;99.90;;;;;;5060319;28;20028;-55
2021/11/02 01:40:26;;;;;;;6.07;1.20;;;8.50;99.90;;;;;;5065383;28;20029;-57
2021/11/02 01:42:52;;;;;;;7.57;1.20;;;8.40;99.90;;;;;;5062025;28;20141;-54
2021/11/02 01:45:17;;;;;;;4.53;1.50;;;8.40;99.90;;;;;;5063463;28;20250;-57
2021/11/02 01:47:46;;;;;;;6.38;1.20;;;8.30;99.90;;;;;;5066511;28;20032;-54
2021/11/02 01:50:13;;;;;;;3.72;1.48;;;8.30;99.90;;;;;;5045868;28;20082;-59
2021/11/02 01:52:40;;;;;;;5.88;1.48;;;8.30;99.90;;;;;;5062594;28;20051;-55
2021/11/02 01:55:07;;;;;;;5.53;1.15;;;8.20;99.90;;;;;;5064327;28;20090;-53
2021/11/02 01:57:32;;;;;;;4.47;0.90;;;8.20;99.90;;;;;;5060549;28;20678;-57
2021/11/02 01:59:58;;;;;;;5.03;1.30;;;8.10;99.90;;;;;;5062723;28;20090;-52
2021/11/02 02:02:46;;;;;;;5.63;1.08;;;8.10;99.90;;;;;;5062456;28;20028;-53
2021/11/02 02:05:49;;;;;;;6.10;1.67;;;8.00;99.90;;;;;;5060332;28;20130;-54
2021/11/02 02:08:40;;;;;;;5.60;1.35;;;7.90;99.90;;;;;;5057902;28;20025;-55
2021/11/02 02:11:19;;;;;;;4.65;1.17;;;7.80;99.90;;;;;;5064118;28;20410;-60
2021/11/02 02:14:10;;;;;;;3.97;1.10;;;7.70;99.90;;;;;;5060481;28;20112;-54
2021/11/02 02:16:43;;;;;;;5.00;1.10;;;7.50;99.90;;;;;;5068278;28;20029;-58
2021/11/02 02:19:33;;;;;;;2.83;0.98;;;7.40;99.90;;;;;;5063222;28;20526;-56
2021/11/02 02:22:23;;;;;;;2.22;1.13;;;7.30;99.90;;;;;;5060956;28;20558;-54
2021/11/02 02:25:12;;;;;;;5.82;1.50;;;7.30;99.90;;;;;;5069064;28;20039;-54
2021/11/02 02:27:59;;;;;;;8.10;1.02;;;7.20;99.90;;;;;;5065249;28;20494;-55
2021/11/02 02:30:26;;;;;;;3.80;1.30;;;7.10;99.90;;;;;;5069134;28;20096;-56
2021/11/02 02:32:54;;;;;;;3.83;1.05;;;7.00;99.90;;;;;;5068035;28;20028;-57
2021/11/02 02:35:22;;;;;;;4.72;1.20;;;7.00;99.90;;;;;;5068373;28;20026;-54
2021/11/02 02:37:49;;;;;;;5.20;1.17;;;7.00;99.90;;;;;;5068451;28;20078;-56
2021/11/02 02:40:16;;;;;;;1.95;0.90;;;6.90;99.90;;;;;;5066275;28;20063;-57
2021/11/02 02:42:45;;;;;;;1.85;1.00;;;6.90;99.90;;;;;;5063558;28;20017;-54
2021/11/02 02:45:13;;;;;;;1.92;1.00;;;6.90;99.90;;;;;;5065257;28;20028;-56
2021/11/02 02:47:41;;;;;;;4.15;2.15;;;6.80;99.90;;;;;;5056777;28;20402;-56
2021/11/02 02:50:08;;;;;;;4.72;1.50;;;6.80;99.90;;;;;;5054076;28;20551;-56
2021/11/02 02:52:35;;;;;;;22.02;2.97;;;6.80;99.90;;;;;;5062139;28;20036;-53
2021/11/02 02:55:02;;;;;;;5.22;1.30;;;6.80;99.90;;;;;;5057440;28;20032;-57
2021/11/02 02:57:29;;;;;;;8.93;1.15;;;6.70;99.90;;;;;;5066294;28;20445;-56
2021/11/02 02:59:55;;;;;;;29.17;2.00;;;6.80;99.90;;;;;;5062620;28;20046;-55
2021/11/02 03:02:25;;;;;;;2.95;0.88;;;6.80;99.90;;;;;;5060852;28;20395;-53
2021/11/02 03:04:53;;;;;;;3.10;1.00;;;6.80;99.90;;;;;;5067393;28;20479;-56
2021/11/02 03:07:21;;;;;;;7.15;1.13;;;6.80;99.90;;;;;;5070917;28;20040;-55
2021/11/02 03:09:47;;;;;;;3.38;1.38;;;6.70;99.90;;;;;;5063607;28;20021;-57
2021/11/02 03:12:18;;;;;;;4.38;1.45;;;6.60;99.90;;;;;;5063951;28;20102;-55
2021/11/02 03:15:06;;;;;;;6.35;1.67;;;6.60;99.90;;;;;;5065593;28;20033;-52
2021/11/02 03:17:45;;;;;;;7.07;1.55;;;6.60;99.90;;;;;;5067276;28;20027;-53
2021/11/02 03:45:10;;;;;;;3.38;1.02;;;6.40;99.90;;;;;;5078943;28;20108;-63
2021/11/02 04:23:37;;;;;;;2.40;0.93;;;6.20;99.90;;;;;;5066904;28;20036;-64
2021/11/02 04:29:32;;;;;;;3.22;1.35;;;6.20;99.90;;;;;;5069598;28;20035;-63
2021/11/02 04:47:55;;;;;;;;;;;6.20;99.90;;;;;;5067190;28;20067;-62
2021/11/02 05:09:47;;;;;;;2.40;1.23;;;6.10;99.90;;;;;;5063396;28;20038;-64
2021/11/02 05:54:25;;;;;;;6.43;1.38;;;5.90;99.90;;;;;;5063762;28;20222;-63
2021/11/02 05:56:17;;;;;;;;;;;5.90;99.90;;;;;;5042399;28;20038;-63
2021/11/02 06:01:51;;;;;;;4.07;1.73;;;6.00;99.90;;;;;;5013742;28;20033;-62
2021/11/02 06:07:42;;;;;;;8.60;1.70;;;6.00;99.90;;;;;;5066782;28;20053;-62
2021/11/02 06:29:24;;;;;;;6.50;1.90;;;5.90;99.90;;;;;;5068299;28;20532;-60
2021/11/02 06:31:55;;;;;;;6.95;2.05;;;5.90;99.90;;;;;;5063453;28;20032;-64
2021/11/02 06:45:14;;;;;;;13.15;2.15;;;6.00;99.90;;;;;;5071932;28;20055;-61
2021/11/02 07:16:01;;;;;;;7.10;1.70;;;6.20;99.90;;;;;;5072131;28;20100;-62
2021/11/02 07:18:31;;;;;;;6.57;1.50;;;6.20;99.90;;;;;;5070916;28;20052;-62
2021/11/02 07:21:12;;;;;;;3.42;1.58;;;6.20;99.90;;;;;;5069565;28;20025;-62
2021/11/02 07:29:31;;;;;;;6.78;1.70;;;6.40;99.90;;;;;;5072787;28;20098;-62
2021/11/02 08:45:11;;;;;;;9.50;2.22;;;8.90;99.90;;;;;;5071113;28;20032;-62
2021/11/02 08:47:40;;;;;;;10.05;2.45;;;9.00;99.90;;;;;;5067950;28;20111;-62
2021/11/02 08:50:08;;;;;;;7.22;2.00;;;9.00;99.90;;;;;;5070573;28;20059;-62
2021/11/02 08:52:35;;;;;;;9.05;2.25;;;9.00;99.90;;;;;;5067830;28;20454;-63
2021/11/02 08:55:04;;;;;;;8.07;2.08;;;9.10;99.90;;;;;;5068605;28;20074;-62
2021/11/02 08:57:30;;;;;;;12.77;2.28;;;9.20;99.90;;;;;;5062269;28;21663;-62
2021/11/02 08:59:56;;;;;;;7.70;2.28;;;9.20;99.90;;;;;;5069467;28;20580;-63
2021/11/02 09:02:33;;;;;;;9.48;2.33;;;9.30;99.90;;;;;;5070117;28;20024;-63
2021/11/02 09:05:08;;;;;;;14.00;2.67;;;9.30;99.90;;;;;;5065662;28;20021;-61
2021/11/02 09:07:38;;;;;;;7.07;2.08;;;9.40;99.90;;;;;;5069482;28;20021;-61
2021/11/02 09:10:15;;;;;;;9.30;2.97;;;9.40;99.90;;;;;;5069536;28;20052;-61
2021/11/02 09:12:46;;;;;;;5.20;1.85;;;9.40;99.90;;;;;;5069946;28;20128;-63
2021/11/02 09:15:13;;;;;;;10.93;2.03;;;9.40;99.90;;;;;;5069287;28;20099;-62
2021/11/02 09:17:45;;;;;;;4.78;1.50;;;9.40;99.90;;;;;;5070211;28;20047;-62
2021/11/02 09:20:11;;;;;;;10.48;1.58;;;9.40;99.90;;;;;;5069383;28;20077;-62
2021/11/02 09:22:38;;;;;;;3.22;1.20;;;9.40;99.90;;;;;;5068889;28;20051;-62
2021/11/02 09:25:04;;;;;;;8.10;1.85;;;9.40;99.90;;;;;;5069448;28;20098;-62
2021/11/02 09:27:30;;;;;;;6.85;1.83;;;9.40;99.90;;;;;;5069971;28;20032;-61
2021/11/02 09:29:56;;;;;;;4.68;1.42;;;9.40;99.90;;;;;;5067935;28;20029;-62
2021/11/02 09:32:24;;;;;;;11.38;1.75;;;9.40;99.90;;;;;;5069015;28;20052;-62
2021/11/02 09:34:51;;;;;;;7.97;1.50;;;9.40;99.90;;;;;;5069651;28;20103;-61
2021/11/02 09:37:30;;;;;;;9.98;1.83;;;9.30;99.90;;;;;;5069201;28;20449;-63
2021/11/02 09:42:43;;;;;;;14.15;2.10;;;9.20;99.90;;;;;;5026820;28;20072;-60
2021/11/02 09:45:31;;;;;;;12.13;2.05;;;9.20;99.90;;;;;;5029103;28;20027;-59
2021/11/02 09:48:20;;;;;;;4.53;1.60;;;9.20;99.90;;;;;;5024580;28;20025;-60
2021/11/02 09:51:23;;;;;;;19.30;2.50;;;9.20;99.90;;;;;;5001547;28;20052;-60
2021/11/02 09:54:14;;;;;;;6.85;1.80;;;9.20;99.90;;;;;;5025081;28;20038;-60
2021/11/02 09:56:53;;;;;;;6.18;2.20;;;9.20;99.90;;;;;;5029229;28;20108;-60
2021/11/02 09:59:39;;;;;;;10.57;2.75;;;9.20;99.90;;;;;;5029859;28;20034;-60
2021/11/02 10:02:25;;;;;;;5.35;2.53;;;9.20;99.90;;;;;;5027190;28;20028;-57
2021/11/02 10:04:56;;;;;;;22.55;3.20;;;9.20;99.90;;;;;;5029290;28;20067;-61
2021/11/02 10:07:41;;;;;;;8.73;3.03;;;9.30;99.90;;;;;;5028103;28;20479;-59
2021/11/02 10:10:10;;;;;;;6.05;2.70;;;9.20;99.90;;;;;;5022963;28;20026;-59
2021/11/02 10:12:42;;;;;;;7.35;2.53;;;9.30;99.90;;;;;;5024804;28;20538;-60
2021/11/02 10:15:27;;;;;;;9.35;2.95;;;9.30;99.90;;;;;;5027423;28;20038;-59
2021/11/02 10:18:04;;;;;;;12.82;3.28;;;9.30;99.90;;;;;;5031212;28;20029;-59
2021/11/02 10:21:13;;;;;;;4.88;2.78;;;9.30;99.90;;;;;;5031999;28;20025;-60
2021/11/02 10:24:18;;;;;;;13.23;2.90;;;9.30;99.90;;;;;;5030343;28;20034;-58
2021/11/02 10:27:14;;;;;;;7.25;3.28;;;9.30;99.90;;;;;;5032566;28;20020;-59
2021/11/02 10:30:17;;;;;;;11.93;3.35;;;9.40;99.90;;;;;;5031152;28;20491;-55
2021/11/02 10:32:45;;;;;;;10.75;4.15;;;9.50;99.90;;;;;;5029252;28;20126;-60
2021/11/02 10:35:28;;;;;;;9.82;4.78;;;9.60;99.90;;;;;;5033765;28;20437;-61
2021/11/02 10:38:10;;;;;;;9.75;3.88;;;9.70;99.90;;;;;;5030256;28;20033;-59
2021/11/02 10:40:40;;;;;;;17.15;3.33;;;9.70;99.90;;;;;;5042834;28;20029;-59
2021/11/02 10:43:41;;;;;;;10.60;3.50;;;9.70;99.90;;;;;;5071313;28;20017;-59
2021/11/02 10:46:13;;;;;;;8.43;4.30;;;9.80;99.90;;;;;;5072572;28;20048;-60
2021/11/02 10:48:42;;;;;;;18.25;6.18;;;9.80;99.90;;;;;;5072305;28;20119;-59
2021/11/02 10:51:21;;;;;;;19.35;5.30;;;9.80;99.90;;;;;;5072875;28;20097;-61
2021/11/02 10:53:55;;;;;;;12.70;4.15;;;9.90;99.90;;;;;;5068538;28;20044;-58
2021/11/02 10:57:09;;;;;;;7.47;3.78;;;9.90;99.90;;;;;;5073175;28;20505;-59
2021/11/02 10:59:41;;;;;;;11.90;4.47;;;10.00;99.90;;;;;;5040854;28;20048;-59
2021/11/02 11:02:21;;;;;;;8.88;3.92;;;10.00;99.90;;;;;;5072487;28;20029;-56
2021/11/02 11:04:48;;;;;;;9.77;4.45;;;9.90;99.90;;;;;;5066700;28;20161;-58
2021/11/02 11:07:16;;;;;;;10.80;4.63;;;9.90;99.90;;;;;;5069343;28;20173;-59
2021/11/02 11:09:45;;;;;;;12.27;5.20;;;9.90;99.90;;;;;;5071305;28;20033;-58
2021/11/02 11:12:14;;;;;;;5.45;3.75;;;10.00;99.90;;;;;;5065958;28;20036;-59
2021/11/02 11:14:44;;;;;;;10.75;5.35;;;10.00;99.90;;;;;;5071140;28;20402;-58
2021/11/02 11:17:14;;;;;;;9.18;4.55;;;10.10;99.90;;;;;;5066261;28;20028;-60
2021/11/02 11:19:48;;;;;;;9.48;3.97;;;10.10;99.90;;;;;;5069612;28;20028;-61
2021/11/02 11:22:20;;;;;;;20.70;5.10;;;10.10;99.90;;;;;;5070854;28;20021;-60
2021/11/02 11:25:05;;;;;;;16.20;4.45;;;10.20;99.90;;;;;;5069403;28;20104;-58
2021/11/02 11:27:33;;;;;;;;;;;10.30;99.90;;;;;;5066262;28;20025;-59
2021/11/02 11:30:05;;;;;;;14.77;4.93;;;10.30;99.90;;;;;;5071112;28;19913;-59
2021/11/02 11:32:34;;;;;;;5.60;3.70;;;10.40;99.90;;;;;;5070341;28;20550;-58
2021/11/02 11:35:02;;;;;;;7.05;4.28;;;10.40;99.90;;;;;;5070888;28;20051;-59
2021/11/02 11:37:31;;;;;;;10.05;3.67;;;10.50;99.90;;;;;;5068045;28;20043;-58
2021/11/02 11:40:00;;;;;;;5.55;3.85;;;10.70;99.90;;;;;;5062789;28;20447;-60
2021/11/02 11:42:29;;;;;;;17.08;4.05;;;10.70;99.90;;;;;;5066268;28;20017;-59
2021/11/02 11:45:03;;;;;;;5.28;3.75;;;10.70;99.90;;;;;;5071456;28;20499;-57
2021/11/02 11:47:29;;;;;;;9.97;5.33;;;10.80;99.90;;;;;;5066404;28;20072;-59
2021/11/02 11:49:56;;;;;;;13.65;4.50;;;10.90;99.90;;;;;;5068175;28;20127;-57
2021/11/02 11:52:25;;;;;;;31.60;4.88;;;10.90;99.90;;;;;;5068849;28;20032;-55
2021/11/02 11:54:52;;;;;;;8.40;3.45;;;11.00;99.90;;;;;;5068206;28;20505;-60
2021/11/02 11:57:33;;;;;;;14.02;3.45;;;11.10;99.90;;;;;;5066327;28;20116;-59
2021/11/02 12:00:03;;;;;;;11.57;4.00;;;11.20;99.90;;;;;;5068517;28;20032;-60
2021/11/02 12:02:54;;;;;;;6.88;3.63;;;11.20;99.90;;;;;;5067559;28;20028;-59
2021/11/02 12:05:22;;;;;;;6.30;3.28;;;11.20;99.90;;;;;;5068630;28;20301;-60
2021/11/02 12:08:07;;;;;;;12.93;3.55;;;11.20;99.90;;;;;;5068975;28;20021;-59
2021/11/02 12:10:37;;;;;;;6.13;2.80;;;11.30;99.90;;;;;;5066572;28;20514;-56
2021/11/02 12:13:10;;;;;;;2.95;1.98;;;11.30;99.90;;;;;;5065144;28;20058;-60
2021/11/02 12:15:48;;;;;;;5.85;2.72;;;11.30;99.90;;;;;;5069705;28;20109;-57
2021/11/02 12:18:18;;;;;;;8.45;2.45;;;11.20;99.90;;;;;;5058867;28;20513;-59
2021/11/02 12:20:50;;;;;;;4.70;2.47;;;11.10;99.90;;;;;;5061666;28;20040;-60
2021/11/02 12:23:31;;;;;;;11.30;3.05;;;11.10;99.90;;;;;;5061782;28;20024;-59
2021/11/02 12:25:58;;;;;;;4.97;2.95;;;11.00;99.90;;;;;;5065710;28;20033;-60
2021/11/02 12:28:29;;;;;;;8.32;3.05;;;10.90;99.90;;;;;;5069539;28;20039;-58
2021/11/02 12:31:09;;;;;;;8.13;3.00;;;10.80;99.90;;;;;;5068368;28;20070;-57
2021/11/02 12:33:35;;;;;;;13.23;2.92;;;10.70;99.90;;;;;;5067699;28;20051;-59
2021/11/02 12:36:05;;;;;;;7.60;3.05;;;10.70;99.90;;;;;;5069211;28;20025;-57
2021/11/02 12:38:34;;;;;;;7.15;3.85;;;10.60;99.90;;;;;;5063376;28;20102;-61
2021/11/02 12:41:01;;;;;;;7.70;3.70;;;10.60;99.90;;;;;;5067225;28;20060;-57
2021/11/02 12:43:31;;;;;;;9.30;3.75;;;10.50;99.90;;;;;;5065679;28;20020;-58
2021/11/02 12:46:00;;;;;;;9.38;3.63;;;10.40;99.90;;;;;;5070198;28;20389;-59
2021/11/02 12:48:28;;;;;;;8.20;4.88;;;10.40;99.90;;;;;;5068604;28;20020;-56
2021/11/02 12:50:54;;;;;;;7.78;5.15;;;10.40;99.90;;;;;;5069034;28;20386;-58
2021/11/02 12:53:20;;;;;;;11.32;4.78;;;10.50;99.90;;;;;;5066789;28;20032;-57
2021/11/02 12:55:46;;;;;;;7.35;5.18;;;10.60;99.90;;;;;;5067790;28;20033;-58
2021/11/02 12:58:12;;;;;;;7.15;4.22;;;10.70;99.90;;;;;;5067204;28;20036;-58
2021/11/02 13:00:50;;;;;;;8.63;4.60;;;10.80;99.90;;;;;;5065842;28;20024;-58
2021/11/02 13:03:22;;;;;;;14.13;4.63;;;10.80;99.90;;;;;;5068413;28;20391;-53
2021/11/02 13:05:55;;;;;;;6.43;4.00;;;10.80;99.90;;;;;;5066304;28;20031;-58
2021/11/02 13:08:28;;;;;;;12.00;4.05;;;10.70;99.90;;;;;;5066493;28;20104;-59
2021/11/02 13:11:03;;;;;;;8.57;4.07;;;10.60;99.90;;;;;;5061704;28;20398;-59
2021/11/02 13:13:30;;;;;;;15.27;4.03;;;10.60;99.90;;;;;;5061724;28;20506;-62
2021/11/02 13:15:58;;;;;;;8.52;4.65;;;10.50;99.90;;;;;;5061252;28;20397;-61
2021/11/02 13:18:31;;;;;;;16.52;4.68;;;10.50;99.90;;;;;;5059974;28;20115;-55
2021/11/02 13:21:29;;;;;;;7.80;4.00;;;10.60;99.90;;;;;;5063163;28;20060;-60
2021/11/02 13:24:07;;;;;;;11.75;3.72;;;10.60;99.90;;;;;;5067664;28;20021;-61
2021/11/02 13:26:39;;;;;;;8.45;3.80;;;10.60;99.90;;;;;;5059755;28;20017;-59
2021/11/02 13:29:14;;;;;;;7.93;3.42;;;10.60;99.90;;;;;;5053501;28;20035;-57
2021/11/02 13:31:42;;;;;;;13.10;3.63;;;10.60;99.90;;;;;;5051811;28;20077;-53
2021/11/02 13:34:11;;;;;;;5.65;2.80;;;10.60;99.90;;;;;;5046654;28;20036;-57
2021/11/02 13:36:37;;;;;;;7.47;2.92;;;10.60;99.90;;;;;;5057302;28;20043;-59
2021/11/02 13:39:09;;;;;;;6.93;2.80;;;10.60;99.90;;;;;;5059405;28;20036;-58
2021/11/02 13:41:48;;;;;;;11.98;2.95;;;10.60;99.90;;;;;;5061546;28;20020;-57
2021/11/02 13:44:15;;;;;;;12.25;2.72;;;10.60;99.90;;;;;;5062141;28;20508;-60
2021/11/02 13:46:49;;;;;;;12.10;2.85;;;10.70;99.90;;;;;;5053667;28;21673;-60
2021/11/02 13:49:16;;;;;;;3.88;2.17;;;10.80;99.90;;;;;;5051217;28;20029;-58
2021/11/02 13:51:42;;;;;;;13.38;3.53;;;10.80;99.90;;;;;;5052450;28;20040;-59
2021/11/02 13:54:09;;;;;;;6.65;3.13;;;10.70;99.90;;;;;;5054044;28;20536;-55
2021/11/02 13:56:38;;;;;;;4.20;2.50;;;10.70;99.90;;;;;;5057944;28;20101;-60
2021/11/02 13:59:08;;;;;;;6.60;3.40;;;10.60;99.90;;;;;;5052333;28;20032;-59
2021/11/02 14:01:42;;;;;;;10.80;3.75;;;10.50;99.90;;;;;;5053417;28;20565;-57
2021/11/02 14:04:43;;;;;;;3.95;2.22;;;10.40;99.90;;;;;;5057574;28;20024;-57
2021/11/02 14:07:13;;;;;;;6.68;2.90;;;10.40;99.90;;;;;;5058683;28;20059;-60
2021/11/02 14:09:44;;;;;;;13.52;3.72;;;10.30;99.90;;;;;;5058005;28;20068;-59
2021/11/02 14:12:28;;;;;;;5.90;2.35;;;10.30;99.90;;;;;;5058333;28;20028;-60
2021/11/02 14:15:17;;;;;;;7.47;2.35;;;10.30;99.90;;;;;;5059348;28;20025;-61
2021/11/02 14:18:08;;;;;;;3.70;1.90;;;10.20;99.90;;;;;;5057887;28;20128;-58
2021/11/02 14:20:36;;;;;;;3.17;1.00;;;10.20;99.90;;;;;;5060043;28;20056;-55
2021/11/02 14:23:08;;;;;;;2.00;1.00;;;10.10;99.90;;;;;;5058519;28;20070;-58
2021/11/02 14:25:41;;;;;;;2.88;0.80;;;10.10;99.90;;;;;;5060534;28;20040;-57
2021/11/02 14:28:11;;;;;;;45.25;2.72;;;10.10;99.90;;;;;;5058531;28;20022;-60
2021/11/02 14:30:44;;;;;;;17.55;1.00;;;10.30;99.90;;;;;;5060260;28;20031;-52
2021/11/02 14:33:17;;;;;;;3.80;1.02;;;10.40;99.90;;;;;;5053874;28;20773;-54
2021/11/02 14:35:51;;;;;;;1.90;0.55;;;10.50;99.90;;;;;;5058608;28;20028;-54
2021/11/02 14:38:28;;;;;;;28.10;1.60;;;10.40;99.90;;;;;;5057835;28;20094;-58
2021/11/02 14:41:22;;;;;;;5.55;0.60;;;10.40;99.90;;;;;;5058590;28;20037;-56
2021/11/02 14:43:48;;;;;;;1.00;0.52;;;10.40;99.90;;;;;;5062289;28;20070;-55
2021/11/02 14:46:19;;;;;;;0.70;0.70;;;10.30;99.90;;;;;;5058409;28;20689;-60
2021/11/02 14:48:47;;;;;;;1.00;0.80;;;10.30;99.90;;;;;;5060365;28;20134;-57
2021/11/02 14:51:13;;;;;;;1.92;0.80;;;10.20;99.90;;;;;;5058857;28;20556;-57
2021/11/02 14:53:39;;;;;;;2.20;1.10;;;10.20;99.90;;;;;;5060935;28;20043;-54
2021/11/02 14:56:18;;;;;;;1.77;1.40;;;10.10;99.90;;;;;;5060358;28;20037;-53
2021/11/02 14:58:57;;;;;;;4.80;1.40;;;10.00;99.90;;;;;;5061652;28;20033;-55
2021/11/02 15:01:34;;;;;;;5.10;1.40;;;9.90;99.90;;;;;;5061497;28;20518;-59
2021/11/02 15:04:11;;;;;;;4.70;1.50;;;9.90;99.90;;;;;;5063713;28;20111;-56
2021/11/02 15:06:40;;;;;;;2.38;1.65;;;9.90;99.90;;;;;;5062950;28;20029;-60
2021/11/02 15:09:12;;;;;;;3.90;1.80;;;9.80;99.90;;;;;;5061855;28;20063;-55
2021/11/02 15:11:45;;;;;;;7.50;2.22;;;9.80;99.90;;;;;;5063470;28;20029;-55
2021/11/02 15:14:19;;;;;;;5.88;2.28;;;9.90;99.90;;;;;;5062904;28;20032;-59
2021/11/02 15:16:54;;;;;;;5.78;2.17;;;9.90;99.90;;;;;;5062440;28;20133;-60
2021/11/02 15:19:23;;;;;;;3.35;1.73;;;9.80;99.90;;;;;;5062078;28;20040;-58
2021/11/02 15:21:57;;;;;;;3.83;2.22;;;9.90;99.90;;;;;;5065802;28;20029;-53
2021/11/02 15:24:31;;;;;;;6.97;4.32;;;9.80;99.90;;;;;;5062341;28;20045;-55
2021/11/02 15:27:03;;;;;;;7.93;3.08;;;9.80;99.90;;;;;;5064807;28;20056;-58
2021/11/02 15:29:33;;;;;;;7.53;3.40;;;9.90;99.90;;;;;;5061625;28;20028;-57
2021/11/02 15:32:08;;;;;;;6.55;2.55;;;9.90;99.90;;;;;;5066625;28;20055;-57
2021/11/02 15:34:46;;;;;;;5.60;2.50;;;9.90;99.90;;;;;;5063258;28;20086;-58
2021/11/02 15:37:22;;;;;;;7.40;3.30;;;9.90;99.90;;;;;;5063513;28;20443;-57
2021/11/02 15:40:08;;;;;;;9.27;3.72;;;9.90;99.90;;;;;;5061123;28;20032;-56
2021/11/02 15:42:36;;;;;;;7.78;2.72;;;9.90;99.90;;;;;;5091563;22;20574;-65
2021/11/02 15:45:10;;;;;;;3.83;2.00;;;9.80;99.90;;;;;;5052282;28;20064;-65
2021/11/02 15:47:43;;;;;;;5.20;2.50;;;9.80;99.90;;;;;;5053306;28;20044;-64
2021/11/02 15:50:11;;;;;;;5.70;2.03;;;9.80;99.90;;;;;;5054616;28;20028;-61
2021/11/02 15:52:38;;;;;;;6.63;2.45;;;9.70;99.90;;;;;;5046192;28;20033;-63
2021/11/02 15:55:09;;;;;;;2.80;2.08;;;9.70;99.90;;;;;;5038424;28;20037;-63
2021/11/02 15:57:43;;;;;;;9.40;3.20;;;9.70;99.90;;;;;;5038227;28;20040;-63
2021/11/02 16:00:11;;;;;;;;;;;9.70;99.90;;;;;;5039669;28;20782;-64
2021/11/02 16:02:42;;;;;;;5.55;2.50;;;9.60;99.90;;;;;;5038278;28;19916;-64
2021/11/02 16:05:09;;;;;;;5.72;2.90;;;9.60;99.90;;;;;;5041146;28;20033;-66
2021/11/02 16:07:36;;;;;;;8.02;3.03;;;9.50;99.90;;;;;;5042302;28;20031;-62
2021/11/02 16:10:06;;;;;;;4.68;3.35;;;9.40;99.90;;;;;;5039945;28;20036;-63
2021/11/02 16:12:39;;;;;;;6.43;3.30;;;9.40;99.90;;;;;;5022887;28;20025;-63
2021/11/02 16:15:20;;;;;;;9.55;3.10;;;9.30;99.90;;;;;;5039013;28;20032;-66
2021/11/02 16:17:55;;;;;;;4.60;3.05;;;9.20;99.90;;;;;;5036680;28;20056;-63
2021/11/02 16:20:41;;;;;;;7.25;3.33;;;9.20;99.90;;;;;;5035699;28;20511;-64
2021/11/02 16:23:14;;;;;;;9.10;3.00;;;9.10;99.90;;;;;;5035463;28;20059;-64
2021/11/02 16:25:53;;;;;;;4.60;3.20;;;9.10;99.90;;;;;;5035868;28;20130;-63
2021/11/02 16:28:21;;;;;;;5.63;3.85;;;8.90;99.90;;;;;;5044148;28;20047;-65
2021/11/02 16:30:54;;;;;;;8.35;3.65;;;8.90;99.90;;;;;;5036377;28;20029;-63
2021/11/02 16:33:31;;;;;;;5.03;3.25;;;8.80;99.90;;;;;;5035231;28;20037;-64
2021/11/02 16:35:56;;;;;;;4.95;3.30;;;8.70;99.90;;;;;;5015295;28;20061;-65
2021/11/02 16:38:28;;;;;;;13.18;3.97;;;8.60;99.90;;;;;;5034976;28;20171;-63
2021/11/02 16:41:04;;;;;;;6.95;3.65;;;8.60;99.90;;;;;;5036789;28;20159;-63
2021/11/02 16:43:46;;;;;;;8.77;4.30;;;8.60;99.90;;;;;;5033881;28;20016;-62
2021/11/02 16:46:23;;;;;;;9.70;4.38;;;8.50;99.90;;;;;;5036011;28;20029;-65
2021/11/02 16:48:55;;;;;;;5.85;3.22;;;8.50;99.90;;;;;;5019074;28;20406;-64
2021/11/02 16:51:21;;;;;;;13.30;3.92;;;8.50;99.90;;;;;;5042598;28;20385;-66
2021/11/02 16:53:46;;;;;;;7.95;3.53;;;8.60;99.90;;;;;;5023410;28;20044;-65
2021/11/02 16:56:32;;;;;;;11.32;5.25;;;8.60;99.90;;;;;;5043622;28;20037;-64
2021/11/02 16:58:58;;;;;;;12.55;3.90;;;8.60;99.90;;;;;;5041149;28;20147;-66
2021/11/02 17:01:30;;;;;;;6.32;3.42;;;8.60;99.90;;;;;;5042120;28;20100;-64
2021/11/02 17:04:07;;;;;;;21.75;4.32;;;8.60;99.90;;;;;;5041056;28;20033;-63
2021/11/02 17:06:33;;;;;;;6.88;3.92;;;8.60;99.90;;;;;;5042899;28;20036;-64
2021/11/02 17:09:01;;;;;;;8.25;3.90;;;8.60;99.90;;;;;;5042337;28;20033;-65
2021/11/02 17:11:28;;;;;;;6.40;3.83;;;8.70;99.90;;;;;;5043347;28;20525;-64
2021/11/02 17:13:54;;;;;;;8.90;4.30;;;8.70;99.90;;;;;;5023616;28;20086;-64
2021/11/02 17:16:27;;;;;;;8.05;4.47;;;8.70;99.90;;;;;;5042398;28;20033;-64
2021/11/02 17:18:59;;;;;;;7.57;4.70;;;8.70;99.90;;;;;;5041319;28;20624;-64
2021/11/02 17:21:30;;;;;;;8.15;5.07;;;8.60;99.90;;;;;;5040766;28;20017;-63
2021/11/02 17:24:00;;;;;;;8.20;5.00;;;8.60;99.90;;;;;;5040614;28;20027;-64
2021/11/02 17:26:29;;;;;;;9.80;5.45;;;8.60;99.90;;;;;;5038390;28;20036;-61
2021/11/02 17:28:56;;;;;;;11.60;6.32;;;8.60;99.90;;;;;;5020249;28;20044;-64
2021/11/02 17:31:36;;;;;;;14.90;6.72;;;8.50;99.90;;;;;;5039551;28;20052;-66
2021/11/02 17:34:02;;;;;;;9.25;5.75;;;8.50;99.90;;;;;;5040455;28;20044;-64
2021/11/02 17:36:29;;;;;;;13.88;7.13;;;8.50;99.90;;;;;;5039911;28;20056;-65
2021/11/02 17:38:55;;;;;;;16.90;7.68;;;8.50;99.90;;;;;;5018138;28;20037;-63
2021/11/02 17:41:21;;;;;;;16.75;7.57;;;8.50;99.90;;;;;;5038815;28;20783;-64
2021/11/02 17:43:51;;;;;;;16.83;7.10;;;8.50;99.90;;;;;;5036806;28;20029;-63
2021/11/02 17:46:16;;;;;;;25.77;9.63;;;8.50;99.90;;;;;;5037620;28;20741;-64
2021/11/02 17:48:42;;;;;;;17.38;8.13;;;8.60;99.90;;;;;;5036935;28;20043;-65
2021/11/02 17:51:08;;;;;;;19.60;7.68;;;8.60;99.90;;;;;;5037786;28;20086;-63
2021/11/02 17:53:36;;;;;;;22.75;8.55;;;8.50;99.90;;;;;;5037620;28;20035;-65
2021/11/02 17:56:03;;;;;;;21.50;9.13;;;8.50;99.90;;;;;;5038116;28;20708;-66
2021/11/02 17:58:29;;;;;;;19.77;8.20;;;8.50;99.90;;;;;;5038253;28;20037;-65
2021/11/02 18:00:59;;;;;;;16.98;8.80;;;8.50;99.90;;;;;;5037575;28;20037;-62
2021/11/02 18:03:27;;;;;;;20.00;7.85;;;8.50;99.90;;;;;;5041177;28;20033;-66
2021/11/02 18:06:01;;;;;;;15.98;7.63;;;8.40;99.90;;;;;;5022946;28;20033;-62
2021/11/02 18:08:28;;;;;;;;;;;8.40;99.90;;;;;;5040487;28;20021;-67